Time,TemperatureF,DewpointF,PressureIn,WindDirection,WindDirectionDegrees,WindSpeedMPH,WindSpeedGustMPH,Humidity,HourlyPrecipIn,Conditions,Clouds,dailyrainin,SoftwareType,DateUTC
2013-03-04 00:00:00,28.8,16.2,29.67,West,270,5.8,5.8,59,0.00,-SN,,0.00,WeatherDisplay:10.37,2013-03-04 05:00:00,
2013-03-04 00:01:00,28.8,16.2,29.67,NNW,338,4.6,4.7,59,0.00,-SN,,0.00,WeatherDisplay:10.37,2013-03-04 05:01:00,
2013-03-04 00:02:00,28.8,16.2,29.67,SSW,202,9.2,9.2,59,0.00,-SN,,0.00,WeatherDisplay:10.37,2013-03-04 05:02:00,
2013-03-04 00:03:00,28.8,16.2,29.67,WNW,292,9.2,9.2,59,0.00,-SN,,0.00,WeatherDisplay:10.37,2013-03-04 05:03:00,
2013-03-04 00:08:00,28.9,16.4,29.67,NW,315,4.6,4.6,59,0.00,-SN,,0.00,WeatherDisplay:10.37,2013-03-04 05:08:00,
2013-03-04 00:13:00,28.9,16.0,29.67,NW,315,4.6,4.6,58,0.00,-SN,,0.00,WeatherDisplay:10.37,2013-03-04 05:13:00,
2013-03-04 00:18:00,28.6,15.3,29.67,NW,315,13.8,13.8,57,0.00,FEW,,0.00,WeatherDisplay:10.37,2013-03-04 05:18:00,
2013-03-04 00:23:00,28.6,15.7,29.67,NW,315,6.9,6.9,58,0.00,FEW,,0.00,WeatherDisplay:10.37,2013-03-04 05:23:00,
2013-03-04 00:28:00,28.6,15.7,29.67,NW,315,11.5,11.5,58,0.00,FEW,,0.00,WeatherDisplay:10.37,2013-03-04 05:28:00,
2013-03-04 00:33:00,28.6,15.3,29.67,NW,315,9.2,9.2,57,0.00,FEW,,0.00,WeatherDisplay:10.37,2013-03-04 05:33:00,
2013-03-04 00:38:00,28.6,15.7,29.67,NW,315,6.9,6.9,58,0.00,FEW,,0.00,WeatherDisplay:10.37,2013-03-04 05:38:00,
2013-03-04 00:43:00,28.6,15.7,29.67,West,270,8.1,8.1,58,0.00,FEW,,0.00,WeatherDisplay:10.37,2013-03-04 05:43:00,
2013-03-04 00:48:00,28.6,15.7,29.67,NNW,338,10.4,10.4,58,0.00,FEW,,0.00,WeatherDisplay:10.37,2013-03-04 05:48:00,
2013-03-04 00:53:00,28.6,15.7,29.67,WNW,292,9.2,9.2,58,0.00,FEW,,0.00,WeatherDisplay:10.37,2013-03-04 05:53:00,
2013-03-04 00:58:00,28.6,15.7,29.67,WNW,292,10.4,10.4,58,0.00,FEW,,0.00,WeatherDisplay:10.37,2013-03-04 05:58:00,
2013-03-04 01:03:00,28.2,15.3,29.67,West,270,11.5,11.5,58,0.00,FEW,,0.00,WeatherDisplay:10.37,2013-03-04 06:03:00,
2013-03-04 01:08:00,28.2,15.3,29.67,NW,315,11.5,11.5,58,0.00,FEW,,0.00,WeatherDisplay:10.37,2013-03-04 06:08:00,
2013-03-04 01:13:00,28.2,15.3,29.67,WSW,248,11.5,11.5,58,0.00,FEW,,0.00,WeatherDisplay:10.37,2013-03-04 06:13:00,
2013-03-04 01:18:00,28.0,15.2,29.67,NW,315,16.1,16.1,58,0.00,FEW,,0.00,WeatherDisplay:10.37,2013-03-04 06:18:00,
2013-03-04 01:23:00,28.0,15.2,29.67,West,270,9.2,9.2,58,0.00,FEW,,0.00,WeatherDisplay:10.37,2013-03-04 06:23:00,
2013-03-04 01:28:00,28.2,15.7,29.67,NW,315,6.9,6.9,59,0.00,FEW,,0.00,WeatherDisplay:10.37,2013-03-04 06:28:00,
2013-03-04 01:33:00,27.9,15.4,29.67,WNW,292,5.8,5.8,59,0.00,FEW,,0.00,WeatherDisplay:10.37,2013-03-04 06:33:00,
2013-03-04 01:38:00,27.9,15.4,29.67,NW,315,6.9,6.9,59,0.00,FEW,,0.00,WeatherDisplay:10.37,2013-03-04 06:38:00,
2013-03-04 01:43:00,27.9,15.4,29.67,NW,315,5.8,5.8,59,0.00,FEW,,0.00,WeatherDisplay:10.37,2013-03-04 06:43:00,
2013-03-04 01:48:00,27.9,15.4,29.67,NNW,338,6.9,6.9,59,0.00,FEW,,0.00,WeatherDisplay:10.37,2013-03-04 06:48:00,
2013-03-04 01:53:00,27.9,15.4,29.67,NW,315,5.8,5.8,59,0.00,FEW,,0.00,WeatherDisplay:10.37,2013-03-04 06:53:00,
2013-03-04 01:58:00,27.9,15.4,29.67,West,270,8.1,8.1,59,0.00,FEW,,0.00,WeatherDisplay:10.37,2013-03-04 06:58:00,
2013-03-04 02:03:00,27.9,15.4,29.67,WNW,292,6.9,6.9,59,0.00,FEW,,0.00,WeatherDisplay:10.37,2013-03-04 07:03:00,
2013-03-04 02:08:00,27.9,15.8,29.67,North,0,8.1,8.1,60,0.00,FEW,,0.00,WeatherDisplay:10.37,2013-03-04 07:08:00,
2013-03-04 02:13:00,27.9,15.8,29.67,NNW,338,6.9,6.9,60,0.00,FEW,,0.00,WeatherDisplay:10.37,2013-03-04 07:13:00,
2013-03-04 02:18:00,27.9,15.8,29.67,North,0,9.2,9.2,60,0.00,FEW,,0.00,WeatherDisplay:10.37,2013-03-04 07:18:00,
2013-03-04 02:23:00,27.9,15.8,29.67,NW,315,8.1,8.1,60,0.00,FEW,,0.00,WeatherDisplay:10.37,2013-03-04 07:23:00,
2013-03-04 02:28:00,27.9,15.8,29.67,NW,315,5.8,5.8,60,0.00,FEW,,0.00,WeatherDisplay:10.37,2013-03-04 07:28:00,
2013-03-04 02:33:00,27.9,15.8,29.67,West,270,6.9,6.9,60,0.00,FEW,,0.00,WeatherDisplay:10.37,2013-03-04 07:33:00,
2013-03-04 02:38:00,27.9,15.8,29.67,NW,315,8.1,8.1,60,0.00,FEW,,0.00,WeatherDisplay:10.37,2013-03-04 07:38:00,
2013-03-04 02:43:00,27.9,15.8,29.67,NW,315,6.9,6.9,60,0.00,FEW,,0.00,WeatherDisplay:10.37,2013-03-04 07:43:00,
2013-03-04 02:48:00,27.5,15.4,29.67,NW,315,4.6,4.6,60,0.00,FEW,,0.00,WeatherDisplay:10.37,2013-03-04 07:48:00,
2013-03-04 02:53:00,27.5,15.8,29.67,NW,315,8.1,8.1,61,0.00,FEW,,0.00,WeatherDisplay:10.37,2013-03-04 07:53:00,
2013-03-04 02:58:00,27.5,15.8,29.67,NW,315,4.6,4.6,61,0.00,FEW,,0.00,WeatherDisplay:10.37,2013-03-04 07:58:00,
2013-03-04 03:03:00,27.5,15.8,29.67,NNW,338,11.2,11.2,61,0.00,FEW,,0.00,WeatherDisplay:10.37,2013-03-04 08:03:00,
2013-03-04 03:08:00,27.3,16.0,29.67,NW,315,5.8,5.8,62,0.00,FEW,,0.00,WeatherDisplay:10.37,2013-03-04 08:08:00,
2013-03-04 03:13:00,27.3,15.6,29.67,NW,315,8.1,8.1,61,0.00,FEW,,0.00,WeatherDisplay:10.37,2013-03-04 08:13:00,
2013-03-04 03:18:00,27.3,16.0,29.67,NW,315,10.4,10.4,62,0.00,FEW,,0.00,WeatherDisplay:10.37,2013-03-04 08:18:00,
2013-03-04 03:23:00,27.3,16.0,29.67,West,270,5.8,5.8,62,0.00,FEW,,0.00,WeatherDisplay:10.37,2013-03-04 08:23:00,
2013-03-04 03:28:00,27.5,16.5,29.67,NNW,338,5.8,5.8,63,0.00,FEW,,0.00,WeatherDisplay:10.37,2013-03-04 08:28:00,
2013-03-04 03:33:00,27.5,16.5,29.67,NW,315,5.9,5.9,63,0.00,FEW,,0.00,WeatherDisplay:10.37,2013-03-04 08:33:00,
2013-03-04 03:38:00,27.3,16.4,29.67,NW,315,9.7,9.7,63,0.00,FEW,,0.00,WeatherDisplay:10.37,2013-03-04 08:38:00,
2013-03-04 03:43:00,27.3,16.7,29.67,NW,315,10.4,10.4,64,0.00,FEW,,0.00,WeatherDisplay:10.37,2013-03-04 08:43:00,
2013-03-04 03:48:00,27.3,16.7,29.67,NW,315,9.7,9.7,64,0.00,FEW,,0.00,WeatherDisplay:10.37,2013-03-04 08:48:00,
2013-03-04 03:53:00,27.3,16.7,29.67,NW,315,10.8,10.8,64,0.00,FEW,,0.00,WeatherDisplay:10.37,2013-03-04 08:53:00,
2013-03-04 03:58:00,27.5,16.9,29.67,NW,315,6.9,6.9,64,0.00,FEW,,0.00,WeatherDisplay:10.37,2013-03-04 08:58:00,
2013-03-04 04:03:00,27.5,16.9,29.67,WNW,292,10.4,10.4,64,0.00,FEW,,0.00,WeatherDisplay:10.37,2013-03-04 09:03:00,
2013-03-04 04:08:00,27.5,17.3,29.67,NW,315,8.5,8.5,65,0.00,FEW,,0.00,WeatherDisplay:10.37,2013-03-04 09:08:00,
2013-03-04 04:13:00,27.5,17.3,29.67,WNW,292,6.9,6.9,65,0.00,FEW,,0.00,WeatherDisplay:10.37,2013-03-04 09:13:00,
2013-03-04 04:18:00,27.5,17.3,29.68,WSW,248,4.6,4.6,65,0.00,FEW,,0.00,WeatherDisplay:10.37,2013-03-04 09:18:00,
2013-03-04 04:23:00,27.5,17.3,29.68,NW,315,3.9,3.9,65,0.00,FEW,,0.00,WeatherDisplay:10.37,2013-03-04 09:23:00,
2013-03-04 04:28:00,27.5,17.3,29.68,NW,315,6.9,6.9,65,0.00,FEW,,0.00,WeatherDisplay:10.37,2013-03-04 09:28:00,
2013-03-04 04:34:00,27.5,17.3,29.68,NW,315,5.8,5.8,65,0.00,FEW,,0.00,WeatherDisplay:10.37,2013-03-04 09:34:00,
2013-03-04 04:39:00,27.5,17.3,29.67,WNW,292,8.1,8.1,65,0.00,FEW,,0.00,WeatherDisplay:10.37,2013-03-04 09:39:00,
2013-03-04 04:44:00,27.5,17.3,29.67,NW,315,6.2,6.2,65,0.00,FEW,,0.00,WeatherDisplay:10.37,2013-03-04 09:44:00,
2013-03-04 04:49:00,27.5,17.3,29.67,NW,315,7.0,7.0,65,0.00,FEW,,0.00,WeatherDisplay:10.37,2013-03-04 09:49:00,
2013-03-04 04:54:00,27.5,17.3,29.67,WNW,292,5.8,5.8,65,0.00,FEW,,0.00,WeatherDisplay:10.37,2013-03-04 09:54:00,
2013-03-04 04:59:00,27.5,17.6,29.69,West,270,8.1,8.1,66,0.00,FEW,,0.00,WeatherDisplay:10.37,2013-03-04 09:59:00,
2013-03-04 05:04:00,27.5,17.6,29.69,NNW,338,8.1,8.1,66,0.00,FEW,,0.00,WeatherDisplay:10.37,2013-03-04 10:04:00,
2013-03-04 05:09:00,27.5,17.6,29.69,NW,315,7.5,7.5,66,0.00,FEW,,0.00,WeatherDisplay:10.37,2013-03-04 10:09:00,
2013-03-04 05:14:00,27.5,17.6,29.69,NW,315,5.8,5.8,66,0.00,FEW,,0.00,WeatherDisplay:10.37,2013-03-04 10:14:00,
2013-03-04 05:19:00,27.3,17.1,29.69,NW,315,7.2,7.2,65,0.00,FEW,,0.00,WeatherDisplay:10.37,2013-03-04 10:19:00,
2013-03-04 05:24:00,27.3,17.5,29.69,NW,315,6.9,6.9,66,0.00,FEW,,0.00,WeatherDisplay:10.37,2013-03-04 10:24:00,
2013-03-04 05:29:00,27.3,17.5,29.69,NNW,338,4.6,4.6,66,0.00,FEW,,0.00,WeatherDisplay:10.37,2013-03-04 10:29:00,
2013-03-04 05:34:00,27.3,17.5,29.69,NW,315,3.5,3.5,66,0.00,FEW,,0.00,WeatherDisplay:10.37,2013-03-04 10:34:00,
2013-03-04 05:39:00,27.3,17.5,29.69,NW,315,6.9,6.9,66,0.00,FEW,,0.00,WeatherDisplay:10.37,2013-03-04 10:39:00,
2013-03-04 05:44:00,27.3,17.5,29.69,NW,315,4.6,4.6,66,0.00,FEW,,0.00,WeatherDisplay:10.37,2013-03-04 10:44:00,
2013-03-04 05:49:00,27.3,17.8,29.69,WNW,292,2.3,3.5,67,0.00,FEW,,0.00,WeatherDisplay:10.37,2013-03-04 10:49:00,
2013-03-04 05:54:00,27.5,18.0,29.69,NW,315,5.8,5.8,67,0.00,FEW,,0.00,WeatherDisplay:10.37,2013-03-04 10:54:00,
2013-03-04 05:59:00,27.5,18.0,29.69,NW,315,4.9,4.9,67,0.00,FEW,,0.00,WeatherDisplay:10.37,2013-03-04 10:59:00,
2013-03-04 06:04:00,27.5,18.0,29.69,WNW,292,3.5,3.5,67,0.00,FEW,,0.00,WeatherDisplay:10.37,2013-03-04 11:04:00,
2013-03-04 06:09:00,27.5,18.0,29.69,WNW,292,3.5,3.5,67,0.00,FEW,,0.00,WeatherDisplay:10.37,2013-03-04 11:09:00,
2013-03-04 06:14:00,27.9,18.3,29.69,NNW,338,5.8,5.8,67,0.00,FEW,,0.00,WeatherDisplay:10.37,2013-03-04 11:14:00,
2013-03-04 06:19:00,27.7,18.1,29.70,NW,315,4.6,4.6,67,0.00,FEW,,0.00,WeatherDisplay:10.37,2013-03-04 11:19:00,
2013-03-04 06:24:00,27.9,18.3,29.70,NW,315,6.9,6.9,67,0.00,FEW,,0.00,WeatherDisplay:10.37,2013-03-04 11:24:00,
2013-03-04 06:30:00,27.9,18.3,29.70,NW,315,11.5,11.5,67,0.00,FEW,,0.00,WeatherDisplay:10.37,2013-03-04 11:30:00,
2013-03-04 06:35:00,27.9,18.3,29.70,NW,315,4.6,4.6,67,0.00,FEW,,0.00,WeatherDisplay:10.37,2013-03-04 11:35:00,
2013-03-04 06:40:00,27.9,18.3,29.71,NW,315,3.5,3.9,67,0.00,FEW,,0.00,WeatherDisplay:10.37,2013-03-04 11:40:00,
2013-03-04 06:45:00,28.2,18.7,29.71,NW,315,9.2,9.2,67,0.00,FEW,,0.00,WeatherDisplay:10.37,2013-03-04 11:45:00,
2013-03-04 06:50:00,28.6,19.0,29.71,NW,315,6.9,6.9,67,0.00,FEW,,0.00,WeatherDisplay:10.37,2013-03-04 11:50:00,
2013-03-04 06:55:00,28.6,18.7,29.71,NW,315,8.1,8.1,66,0.00,FEW,,0.00,WeatherDisplay:10.37,2013-03-04 11:55:00,
2013-03-04 07:00:00,28.6,18.7,29.72,NW,315,6.9,6.9,66,0.00,FEW,,0.00,WeatherDisplay:10.37,2013-03-04 12:00:00,
2013-03-04 07:05:00,28.9,19.0,29.72,NNW,338,11.5,11.5,66,0.00,FEW,,0.00,WeatherDisplay:10.37,2013-03-04 12:05:00,
2013-03-04 07:10:00,29.3,19.3,29.72,NW,315,8.1,8.1,66,0.00,FEW,,0.00,WeatherDisplay:10.37,2013-03-04 12:10:00,
2013-03-04 07:15:00,29.3,19.0,29.72,NW,315,9.2,9.2,65,0.00,FEW,,0.00,WeatherDisplay:10.37,2013-03-04 12:15:00,
2013-03-04 07:20:00,29.5,19.2,29.72,West,270,6.9,6.9,65,0.00,FEW,,0.00,WeatherDisplay:10.37,2013-03-04 12:20:00,
2013-03-04 07:25:00,29.7,19.0,29.72,NW,315,8.1,8.1,64,0.00,FEW,,0.00,WeatherDisplay:10.37,2013-03-04 12:25:00,
2013-03-04 07:31:00,29.8,19.1,29.72,NW,315,6.9,6.9,64,0.00,FEW,,0.00,WeatherDisplay:10.37,2013-03-04 12:31:00,
2013-03-04 07:36:00,30.0,19.3,29.72,WNW,292,8.1,8.1,64,0.00,FEW,,0.00,WeatherDisplay:10.37,2013-03-04 12:36:00,
2013-03-04 07:41:00,30.0,18.9,29.72,NW,315,11.5,11.5,63,0.00,FEW,,0.00,WeatherDisplay:10.37,2013-03-04 12:41:00,
2013-03-04 07:46:00,30.4,19.3,29.72,NNW,338,8.1,8.1,63,0.00,FEW,,0.00,WeatherDisplay:10.37,2013-03-04 12:46:00,
2013-03-04 07:51:00,30.4,19.3,29.72,WNW,292,6.9,6.9,63,0.00,FEW,,0.00,WeatherDisplay:10.37,2013-03-04 12:51:00,
2013-03-04 07:56:00,30.7,19.6,29.72,NW,315,12.7,12.7,63,0.00,FEW,,0.00,WeatherDisplay:10.37,2013-03-04 12:56:00,
2013-03-04 08:01:00,30.7,19.2,29.72,NW,315,8.1,8.1,62,0.00,FEW,,0.00,WeatherDisplay:10.37,2013-03-04 13:01:00,
2013-03-04 08:06:00,31.1,19.6,29.72,WNW,292,4.6,5.1,62,0.00,FEW,,0.00,WeatherDisplay:10.37,2013-03-04 13:06:00,
2013-03-04 08:11:00,31.8,20.3,29.72,NW,315,3.5,4.3,62,0.00,FEW,,0.00,WeatherDisplay:10.37,2013-03-04 13:11:00,
2013-03-04 08:16:00,32.2,20.2,29.72,NW,315,9.2,9.2,61,0.00,FEW,,0.00,WeatherDisplay:10.37,2013-03-04 13:16:00,
2013-03-04 08:21:00,32.4,19.6,29.71,WNW,292,15.0,15.0,59,0.00,FEW,,0.00,WeatherDisplay:10.37,2013-03-04 13:21:00,
2013-03-04 08:26:00,32.5,19.8,29.71,NW,315,9.2,9.2,59,0.00,FEW,,0.00,WeatherDisplay:10.37,2013-03-04 13:26:00,
2013-03-04 08:31:00,32.7,20.0,29.71,NNW,338,8.1,8.1,59,0.00,FEW,,0.00,WeatherDisplay:10.37,2013-03-04 13:31:00,
2013-03-04 08:36:00,32.5,19.8,29.71,West,270,9.2,9.2,59,0.00,FEW,,0.00,WeatherDisplay:10.37,2013-03-04 13:36:00,
2013-03-04 08:41:00,32.5,19.8,29.72,NNW,338,9.2,9.2,59,0.00,FEW,,0.00,WeatherDisplay:10.37,2013-03-04 13:41:00,
2013-03-04 08:46:00,32.9,19.7,29.72,NW,315,13.8,13.8,58,0.00,FEW,,0.00,WeatherDisplay:10.37,2013-03-04 13:46:00,
2013-03-04 08:51:00,33.1,19.9,29.72,NW,315,13.8,13.8,58,0.00,FEW,,0.00,WeatherDisplay:10.37,2013-03-04 13:51:00,
2013-03-04 08:56:00,33.3,19.7,29.72,NW,315,8.1,8.1,57,0.00,FEW,,0.00,WeatherDisplay:10.37,2013-03-04 13:56:00,
2013-03-04 09:01:00,33.6,20.0,29.71,NW,315,5.8,6.2,57,0.00,FEW,,0.00,WeatherDisplay:10.37,2013-03-04 14:01:00,
2013-03-04 09:06:00,34.2,20.1,29.71,WNW,292,15.0,15.0,56,0.00,FEW,,0.00,WeatherDisplay:10.37,2013-03-04 14:06:00,
2013-03-04 09:12:00,34.2,20.1,29.71,NW,315,13.8,13.8,56,0.00,FEW,,0.00,WeatherDisplay:10.37,2013-03-04 14:12:00,
2013-03-04 09:17:00,34.3,19.8,29.71,NW,315,11.5,11.5,55,0.00,FEW,,0.00,WeatherDisplay:10.37,2013-03-04 14:17:00,
2013-03-04 09:22:00,34.5,20.4,29.71,West,270,9.2,9.2,56,0.00,FEW,,0.00,WeatherDisplay:10.37,2013-03-04 14:22:00,
2013-03-04 09:27:00,34.5,20.4,29.71,SW,225,9.2,9.2,56,0.00,FEW,,0.00,WeatherDisplay:10.37,2013-03-04 14:27:00,
2013-03-04 09:32:00,34.7,20.6,29.71,NNW,338,15.0,15.0,56,0.00,FEW,,0.00,WeatherDisplay:10.37,2013-03-04 14:32:00,
2013-03-04 09:37:00,34.9,20.3,29.71,NW,315,12.7,12.7,55,0.00,FEW,,0.00,WeatherDisplay:10.37,2013-03-04 14:37:00,
2013-03-04 09:42:00,35.2,21.1,29.71,WSW,248,4.6,6.1,56,0.00,FEW,,0.00,WeatherDisplay:10.37,2013-03-04 14:42:00,
2013-03-04 09:47:00,35.8,21.2,29.71,NW,315,9.2,9.2,55,0.00,FEW,,0.00,WeatherDisplay:10.37,2013-03-04 14:47:00,
2013-03-04 09:52:00,36.5,21.4,29.71,NW,315,8.9,8.9,54,0.00,FEW,,0.00,WeatherDisplay:10.37,2013-03-04 14:52:00,
2013-03-04 09:57:00,36.5,21.4,29.71,NW,315,8.1,8.1,54,0.00,FEW,,0.00,WeatherDisplay:10.37,2013-03-04 14:57:00,
2013-03-04 10:02:00,36.7,21.6,29.71,NW,315,6.9,6.9,54,0.00,FEW,,0.00,WeatherDisplay:10.37,2013-03-04 15:02:00,
2013-03-04 10:07:00,36.9,21.3,29.71,NNE,22,8.1,8.1,53,0.00,FEW,,0.00,WeatherDisplay:10.37,2013-03-04 15:07:00,
2013-03-04 10:12:00,37.0,21.5,29.71,WNW,292,6.9,6.9,53,0.00,FEW,,0.00,WeatherDisplay:10.37,2013-03-04 15:12:00,
2013-03-04 10:17:00,37.2,21.2,29.71,NW,315,8.3,8.3,52,0.00,FEW,,0.00,WeatherDisplay:10.37,2013-03-04 15:17:00,
2013-03-04 10:22:00,37.8,21.7,29.71,West,270,11.5,11.5,52,0.00,FEW,,0.00,WeatherDisplay:10.37,2013-03-04 15:22:00,
2013-03-04 10:27:00,37.9,21.4,29.71,West,270,7.6,7.6,51,0.00,FEW,,0.00,WeatherDisplay:10.37,2013-03-04 15:27:00,
2013-03-04 10:32:00,38.1,21.6,29.71,NNW,338,10.4,10.4,51,0.00,FEW,,0.00,WeatherDisplay:10.37,2013-03-04 15:32:00,
2013-03-04 10:37:00,38.1,20.6,29.71,NW,315,11.5,11.5,49,0.00,FEW,,0.00,WeatherDisplay:10.37,2013-03-04 15:37:00,
2013-03-04 10:42:00,38.3,21.3,29.71,NW,315,11.5,11.5,50,0.00,FEW,,0.00,WeatherDisplay:10.37,2013-03-04 15:42:00,
2013-03-04 10:47:00,38.7,21.6,29.71,West,270,9.2,9.2,50,0.00,FEW,,0.00,WeatherDisplay:10.37,2013-03-04 15:47:00,
2013-03-04 10:52:00,38.7,21.1,29.71,West,270,11.5,11.5,49,0.00,FEW,,0.00,WeatherDisplay:10.37,2013-03-04 15:52:00,
2013-03-04 10:57:00,39.0,21.0,29.70,West,270,10.8,10.8,48,0.00,FEW,,0.00,WeatherDisplay:10.37,2013-03-04 15:57:00,
2013-03-04 11:02:00,39.4,21.3,29.70,NW,315,12.7,12.7,48,0.00,FEW,,0.00,WeatherDisplay:10.37,2013-03-04 16:02:00,
2013-03-04 11:07:00,39.4,21.3,29.70,NW,315,12.7,12.7,48,0.00,FEW,,0.00,WeatherDisplay:10.37,2013-03-04 16:07:00,
2013-03-04 11:12:00,39.7,21.6,29.70,SE,135,6.9,6.9,48,0.00,FEW,,0.00,WeatherDisplay:10.37,2013-03-04 16:12:00,
2013-03-04 11:17:00,40.3,21.6,29.69,NW,315,8.1,8.1,47,0.00,FEW,,0.00,WeatherDisplay:10.37,2013-03-04 16:17:00,
2013-03-04 11:22:00,40.3,22.1,29.69,WSW,248,10.4,10.4,48,0.00,FEW,,0.00,WeatherDisplay:10.37,2013-03-04 16:22:00,
2013-03-04 11:27:00,40.5,21.8,29.69,NNW,338,8.1,8.1,47,0.00,FEW,,0.00,WeatherDisplay:10.37,2013-03-04 16:27:00,
2013-03-04 11:32:00,40.8,21.1,29.69,NW,315,8.1,8.1,45,0.00,FEW,,0.00,WeatherDisplay:10.37,2013-03-04 16:32:00,
2013-03-04 11:37:00,40.3,20.6,29.69,NNW,338,13.8,13.8,45,0.00,FEW,,0.00,WeatherDisplay:10.37,2013-03-04 16:37:00,
2013-03-04 11:42:00,40.8,22.1,29.69,NW,315,10.4,10.4,47,0.00,FEW,,0.00,WeatherDisplay:10.37,2013-03-04 16:42:00,
2013-03-04 11:47:00,41.0,21.3,29.69,NW,315,10.4,10.4,45,0.00,FEW,,0.00,WeatherDisplay:10.37,2013-03-04 16:47:00,
2013-03-04 11:52:00,41.2,21.4,29.69,NNW,338,9.1,9.1,45,0.00,FEW,,0.00,WeatherDisplay:10.37,2013-03-04 16:52:00,
2013-03-04 11:57:00,41.7,21.9,29.69,WSW,248,5.8,6.1,45,0.00,FEW,,0.00,WeatherDisplay:10.37,2013-03-04 16:57:00,
2013-03-04 12:02:00,41.5,21.8,29.69,North,0,5.8,5.8,45,0.00,FEW,,0.00,WeatherDisplay:10.37,2013-03-04 17:02:00,
2013-03-04 12:07:00,41.7,21.9,29.69,West,270,6.2,6.2,45,0.00,FEW,,0.00,WeatherDisplay:10.37,2013-03-04 17:07:00,
2013-03-04 12:12:00,41.7,21.4,29.69,West,270,6.2,6.2,44,0.00,FEW,,0.00,WeatherDisplay:10.37,2013-03-04 17:12:00,
2013-03-04 12:17:00,41.5,20.7,29.68,WNW,292,13.3,13.3,43,0.00,FEW,,0.00,WeatherDisplay:10.37,2013-03-04 17:17:00,
2013-03-04 12:22:00,41.4,21.1,29.68,WNW,292,12.7,12.7,44,0.00,FEW,,0.00,WeatherDisplay:10.37,2013-03-04 17:22:00,
2013-03-04 12:27:00,41.7,21.4,29.68,NNW,338,13.8,13.8,44,0.00,FEW,,0.00,WeatherDisplay:10.37,2013-03-04 17:27:00,
2013-03-04 12:32:00,41.7,21.4,29.68,NW,315,12.7,12.7,44,0.00,FEW,,0.00,WeatherDisplay:10.37,2013-03-04 17:32:00,
2013-03-04 12:37:00,41.9,21.5,29.68,West,270,9.2,9.2,44,0.00,FEW,,0.00,WeatherDisplay:10.37,2013-03-04 17:37:00,
2013-03-04 12:42:00,42.3,21.9,29.68,NW,315,9.5,9.5,44,0.00,FEW,,0.00,WeatherDisplay:10.37,2013-03-04 17:42:00,
2013-03-04 12:47:00,42.3,21.9,29.68,WSW,248,11.5,11.5,44,0.00,FEW,,0.00,WeatherDisplay:10.37,2013-03-04 17:47:00,
2013-03-04 12:52:00,42.3,21.9,29.68,NW,315,9.2,9.2,44,0.00,FEW,,0.00,WeatherDisplay:10.37,2013-03-04 17:52:00,
2013-03-04 12:57:00,42.3,21.3,29.67,NW,315,11.5,11.5,43,0.00,FEW,,0.00,WeatherDisplay:10.37,2013-03-04 17:57:00,
2013-03-04 13:02:00,42.4,21.5,29.67,WNW,292,12.7,12.7,43,0.00,FEW,,0.00,WeatherDisplay:10.37,2013-03-04 18:02:00,
2013-03-04 13:07:00,42.4,21.5,29.67,NW,315,9.2,9.2,43,0.00,FEW,,0.00,WeatherDisplay:10.37,2013-03-04 18:07:00,
2013-03-04 13:12:00,42.6,21.7,29.67,WNW,292,9.2,9.2,43,0.00,FEW,,0.00,WeatherDisplay:10.37,2013-03-04 18:12:00,
2013-03-04 13:17:00,42.6,21.1,29.67,NNW,338,14.0,14.0,42,0.00,FEW,,0.00,WeatherDisplay:10.37,2013-03-04 18:17:00,
2013-03-04 13:22:00,42.4,20.9,29.67,NW,315,18.4,18.4,42,0.00,FEW,,0.00,WeatherDisplay:10.37,2013-03-04 18:22:00,
2013-03-04 13:27:00,42.3,21.3,29.67,West,270,9.2,9.2,43,0.00,FEW,,0.00,WeatherDisplay:10.37,2013-03-04 18:27:00,
2013-03-04 13:29:00,42.4,21.5,29.67,NW,315,8.1,9.0,43,0.00,FEW,,0.00,WeatherDisplay:10.37,2013-03-04 18:29:00,
2013-03-04 13:30:00,42.4,22.0,29.67,West,270,10.8,10.8,44,0.00,FEW,,0.00,WeatherDisplay:10.37,2013-03-04 18:30:00,
2013-03-04 13:36:00,43.0,22.0,29.67,WSW,248,10.4,10.4,43,0.00,FEW,,0.00,WeatherDisplay:10.37,2013-03-04 18:36:00,
2013-03-04 13:41:00,43.0,21.4,29.66,WNW,292,9.2,9.2,42,0.00,FEW,,0.00,WeatherDisplay:10.37,2013-03-04 18:41:00,
2013-03-04 13:46:00,43.0,21.4,29.66,WNW,292,10.4,10.4,42,0.00,FEW,,0.00,WeatherDisplay:10.37,2013-03-04 18:46:00,
2013-03-04 13:51:00,43.2,22.1,29.66,NW,315,9.2,9.2,43,0.00,FEW,,0.00,WeatherDisplay:10.37,2013-03-04 18:51:00,
2013-03-04 13:55:00,43.2,21.6,29.66,West,270,11.5,11.5,42,0.00,FEW,,0.00,WeatherDisplay:10.37,2013-03-04 18:55:00,
2013-03-04 14:00:00,43.2,21.6,29.67,WNW,292,8.1,8.1,42,0.00,FEW,,0.00,WeatherDisplay:10.37,2013-03-04 19:00:00,
2013-03-04 14:05:00,43.2,21.0,29.67,WSW,248,13.8,13.8,41,0.00,FEW,,0.00,WeatherDisplay:10.37,2013-03-04 19:05:00,
2013-03-04 14:10:00,43.3,21.8,29.67,West,270,11.5,11.5,42,0.00,FEW,,0.00,WeatherDisplay:10.37,2013-03-04 19:10:00,
2013-03-04 14:15:00,43.2,21.0,29.67,WNW,292,11.6,11.6,41,0.00,FEW,,0.00,WeatherDisplay:10.37,2013-03-04 19:15:00,
2013-03-04 14:20:00,43.2,21.6,29.67,NNW,338,8.1,8.2,42,0.00,FEW,,0.00,WeatherDisplay:10.37,2013-03-04 19:20:00,
2013-03-04 14:25:00,43.7,22.6,29.67,NNE,22,5.8,5.8,43,0.00,FEW,,0.00,WeatherDisplay:10.37,2013-03-04 19:25:00,
2013-03-04 14:30:00,43.5,21.3,29.67,NNW,338,9.2,9.2,41,0.00,FEW,,0.00,WeatherDisplay:10.37,2013-03-04 19:30:00,
2013-03-04 14:35:00,44.1,22.4,29.67,NW,315,11.5,11.5,42,0.00,FEW,,0.00,WeatherDisplay:10.37,2013-03-04 19:35:00,
2013-03-04 14:41:00,43.7,21.5,29.66,SE,135,8.1,8.1,41,0.00,FEW,,0.00,WeatherDisplay:10.37,2013-03-04 19:41:00,
2013-03-04 14:46:00,43.5,21.3,29.66,NW,315,11.5,11.5,41,0.00,FEW,,0.00,WeatherDisplay:10.37,2013-03-04 19:46:00,
2013-03-04 14:51:00,43.2,21.0,29.66,NW,315,13.8,13.8,41,0.00,FEW,,0.00,WeatherDisplay:10.37,2013-03-04 19:51:00,
2013-03-04 14:56:00,43.7,21.5,29.66,NNW,338,12.7,12.7,41,0.00,FEW,,0.00,WeatherDisplay:10.37,2013-03-04 19:56:00,
2013-03-04 15:01:00,43.7,22.1,29.67,NW,315,10.4,10.4,42,0.00,FEW,,0.00,WeatherDisplay:10.37,2013-03-04 20:01:00,
2013-03-04 15:06:00,43.7,20.9,29.67,WNW,292,11.5,11.5,40,0.00,FEW,,0.00,WeatherDisplay:10.37,2013-03-04 20:06:00,
2013-03-04 15:11:00,43.7,21.5,29.67,WNW,292,11.5,11.5,41,0.00,FEW,,0.00,WeatherDisplay:10.37,2013-03-04 20:11:00,
2013-03-04 15:16:00,43.7,21.5,29.67,NW,315,11.5,11.5,41,0.00,FEW,,0.00,WeatherDisplay:10.37,2013-03-04 20:16:00,
2013-03-04 15:21:00,43.7,21.5,29.67,WSW,248,4.6,5.3,41,0.00,FEW,,0.00,WeatherDisplay:10.37,2013-03-04 20:21:00,
2013-03-04 15:26:00,43.3,20.6,29.67,NW,315,13.8,13.8,40,0.00,FEW,,0.00,WeatherDisplay:10.37,2013-03-04 20:26:00,
2013-03-04 15:31:00,43.3,21.2,29.67,NNW,338,11.5,11.5,41,0.00,FEW,,0.00,WeatherDisplay:10.37,2013-03-04 20:31:00,
2013-03-04 15:36:00,43.0,20.9,29.67,South,180,8.1,8.1,41,0.00,FEW,,0.00,WeatherDisplay:10.37,2013-03-04 20:36:00,
2013-03-04 15:41:00,42.6,20.5,29.67,NNW,338,10.4,10.4,41,0.00,FEW,,0.00,WeatherDisplay:10.37,2013-03-04 20:41:00,
2013-03-04 15:46:00,42.6,20.5,29.67,NW,315,8.1,8.1,41,0.00,FEW,,0.00,WeatherDisplay:10.37,2013-03-04 20:46:00,
2013-03-04 15:51:00,42.4,20.9,29.67,NW,315,6.9,6.9,42,0.00,FEW,,0.00,WeatherDisplay:10.37,2013-03-04 20:51:00,
2013-03-04 15:56:00,42.4,20.9,29.67,West,270,8.1,8.1,42,0.00,FEW,,0.00,WeatherDisplay:10.37,2013-03-04 20:56:00,
2013-03-04 16:01:00,42.4,20.9,29.68,NW,315,8.1,8.1,42,0.00,FEW,,0.00,WeatherDisplay:10.37,2013-03-04 21:01:00,
2013-03-04 16:06:00,42.4,20.4,29.68,NW,315,9.2,9.2,41,0.00,FEW,,0.00,WeatherDisplay:10.37,2013-03-04 21:06:00,
2013-03-04 16:11:00,42.3,20.8,29.68,NNW,338,11.5,11.5,42,0.00,FEW,,0.00,WeatherDisplay:10.37,2013-03-04 21:11:00,
2013-03-04 16:16:00,41.9,20.4,29.68,NW,315,9.2,9.2,42,0.00,FEW,,0.00,WeatherDisplay:10.37,2013-03-04 21:16:00,
2013-03-04 16:21:00,41.9,20.4,29.67,North,0,6.9,6.9,42,0.00,FEW,,0.00,WeatherDisplay:10.37,2013-03-04 21:21:00,
2013-03-04 16:26:00,41.9,19.9,29.67,NW,315,12.7,12.7,41,0.00,FEW,,0.00,WeatherDisplay:10.37,2013-03-04 21:26:00,
2013-03-04 16:31:00,41.7,20.3,29.67,NW,315,10.4,10.4,42,0.00,FEW,,0.00,WeatherDisplay:10.37,2013-03-04 21:31:00,
2013-03-04 16:36:00,41.7,20.3,29.67,West,270,11.5,11.5,42,0.00,FEW,,0.00,WeatherDisplay:10.37,2013-03-04 21:36:00,
2013-03-04 16:41:00,41.5,20.1,29.69,NW,315,13.8,13.8,42,0.00,FEW,,0.00,WeatherDisplay:10.37,2013-03-04 21:41:00,
2013-03-04 16:46:00,41.5,19.6,29.69,NW,315,6.9,7.1,41,0.00,FEW,,0.00,WeatherDisplay:10.37,2013-03-04 21:46:00,
2013-03-04 16:51:00,41.4,20.5,29.69,NW,315,10.4,10.4,43,0.00,FEW,,0.00,WeatherDisplay:10.37,2013-03-04 21:51:00,
2013-03-04 16:56:00,41.2,20.3,29.69,NW,315,8.1,8.1,43,0.00,FEW,,0.00,WeatherDisplay:10.37,2013-03-04 21:56:00,
2013-03-04 17:01:00,41.2,20.3,29.69,NW,315,5.8,5.8,43,0.00,FEW,,0.00,WeatherDisplay:10.37,2013-03-04 22:01:00,
2013-03-04 17:06:00,41.0,20.2,29.69,NNW,338,8.1,8.1,43,0.00,FEW,,0.00,WeatherDisplay:10.37,2013-03-04 22:06:00,
2013-03-04 17:11:00,41.0,20.2,29.69,NW,315,9.2,9.2,43,0.00,FEW,,0.00,WeatherDisplay:10.37,2013-03-04 22:11:00,
2013-03-04 17:16:00,40.6,19.9,29.69,NW,315,13.8,13.8,43,0.00,FEW,,0.00,WeatherDisplay:10.37,2013-03-04 22:16:00,
2013-03-04 17:21:00,40.5,19.7,29.70,NW,315,11.5,11.5,43,0.00,FEW,,0.00,WeatherDisplay:10.37,2013-03-04 22:21:00,
2013-03-04 17:26:00,40.3,19.5,29.70,NW,315,10.4,10.4,43,0.00,FEW,,0.00,WeatherDisplay:10.37,2013-03-04 22:26:00,
2013-03-04 17:32:00,40.1,19.9,29.70,ENE,68,9.2,9.2,44,0.00,FEW,,0.00,WeatherDisplay:10.37,2013-03-04 22:32:00,
2013-03-04 17:37:00,39.7,19.6,29.70,NW,315,6.9,6.9,44,0.00,FEW,,0.00,WeatherDisplay:10.37,2013-03-04 22:37:00,
2013-03-04 17:42:00,39.6,19.9,29.70,NNW,338,5.8,5.8,45,0.00,FEW,,0.00,WeatherDisplay:10.37,2013-03-04 22:42:00,
2013-03-04 17:47:00,39.4,19.8,29.70,NW,315,12.0,12.0,45,0.00,FEW,,0.00,WeatherDisplay:10.37,2013-03-04 22:47:00,
2013-03-04 17:52:00,39.0,20.0,29.70,West,270,4.6,4.6,46,0.00,FEW,,0.00,WeatherDisplay:10.37,2013-03-04 22:52:00,
2013-03-04 17:57:00,38.8,19.8,29.72,NW,315,5.8,5.8,46,0.00,FEW,,0.00,WeatherDisplay:10.37,2013-03-04 22:57:00,
2013-03-04 18:02:00,38.5,19.5,29.72,West,270,5.8,5.8,46,0.00,FEW,,0.00,WeatherDisplay:10.37,2013-03-04 23:02:00,
2013-03-04 18:07:00,38.3,19.3,29.72,WNW,292,5.8,5.8,46,0.00,FEW,,0.00,WeatherDisplay:10.37,2013-03-04 23:07:00,
2013-03-04 18:12:00,38.3,19.3,29.72,WNW,292,5.8,5.8,46,0.00,FEW,,0.00,WeatherDisplay:10.37,2013-03-04 23:12:00,
2013-03-04 18:17:00,37.9,19.0,29.73,West,270,8.1,8.1,46,0.00,FEW,,0.00,WeatherDisplay:10.37,2013-03-04 23:17:00,
2013-03-04 18:22:00,37.9,19.0,29.73,NW,315,8.1,8.1,46,0.00,FEW,,0.00,WeatherDisplay:10.37,2013-03-04 23:22:00,
2013-03-04 18:27:00,37.6,19.1,29.73,North,0,9.2,9.2,47,0.00,FEW,,0.00,WeatherDisplay:10.37,2013-03-04 23:27:00,
2013-03-04 18:32:00,37.4,19.5,29.73,WNW,292,6.9,6.9,48,0.00,FEW,,0.00,WeatherDisplay:10.37,2013-03-04 23:32:00,
2013-03-04 18:37:00,37.2,19.3,29.73,NW,315,3.5,3.7,48,0.00,FEW,,0.00,WeatherDisplay:10.37,2013-03-04 23:37:00,
2013-03-04 18:42:00,37.2,19.3,29.73,NW,315,11.5,11.5,48,0.00,FEW,,0.00,WeatherDisplay:10.37,2013-03-04 23:42:00,
2013-03-04 18:47:00,36.9,19.0,29.73,NW,315,8.1,8.1,48,0.00,FEW,,0.00,WeatherDisplay:10.37,2013-03-04 23:47:00,
2013-03-04 18:52:00,36.7,19.3,29.73,NW,315,4.6,4.6,49,0.00,FEW,,0.00,WeatherDisplay:10.37,2013-03-04 23:52:00,
2013-03-04 18:57:00,36.7,19.3,29.74,NW,315,6.9,6.9,49,0.00,FEW,,0.00,WeatherDisplay:10.37,2013-03-04 23:57:00,
2013-03-04 19:02:00,36.5,19.1,29.74,NW,315,9.2,9.2,49,0.00,FEW,,0.00,WeatherDisplay:10.37,2013-03-05 00:02:00,
2013-03-04 19:07:00,36.5,19.1,29.74,West,270,10.4,10.4,49,0.00,FEW,,0.00,WeatherDisplay:10.37,2013-03-05 00:07:00,
2013-03-04 19:12:00,36.5,19.1,29.74,NW,315,9.2,9.2,49,0.00,FEW,,0.00,WeatherDisplay:10.37,2013-03-05 00:12:00,
2013-03-04 19:17:00,36.3,19.0,29.75,NW,315,5.8,5.9,49,0.00,FEW,,0.00,WeatherDisplay:10.37,2013-03-05 00:17:00,
2013-03-04 19:22:00,36.1,18.8,29.75,NW,315,9.2,9.2,49,0.00,FEW,,0.00,WeatherDisplay:10.37,2013-03-05 00:22:00,
2013-03-04 19:27:00,36.0,19.1,29.75,SE,135,11.5,11.5,50,0.00,FEW,,0.00,WeatherDisplay:10.37,2013-03-05 00:27:00,
2013-03-04 19:32:00,36.1,19.3,29.75,NW,315,5.8,5.8,50,0.00,FEW,,0.00,WeatherDisplay:10.37,2013-03-05 00:32:00,
2013-03-04 19:37:00,35.8,18.9,29.75,NNW,338,8.1,8.1,50,0.00,FEW,,0.00,WeatherDisplay:10.37,2013-03-05 00:37:00,
2013-03-04 19:42:00,35.8,19.4,29.75,WNW,292,9.2,9.2,51,0.00,FEW,,0.00,WeatherDisplay:10.37,2013-03-05 00:42:00,
2013-03-04 19:47:00,35.6,19.2,29.75,NW,315,6.9,6.9,51,0.00,FEW,,0.00,WeatherDisplay:10.37,2013-03-05 00:47:00,
2013-03-04 19:52:00,35.8,19.4,29.75,NW,315,5.8,5.8,51,0.00,FEW,,0.00,WeatherDisplay:10.37,2013-03-05 00:52:00,
2013-03-04 19:57:00,35.4,19.1,29.76,NNW,338,5.8,5.8,51,0.00,FEW,,0.00,WeatherDisplay:10.37,2013-03-05 00:57:00,
2013-03-04 20:02:00,35.2,18.9,29.76,WSW,248,7.8,7.8,51,0.00,FEW,,0.00,WeatherDisplay:10.37,2013-03-05 01:02:00,
2013-03-04 20:07:00,35.4,19.1,29.76,NW,315,7.2,7.2,51,0.00,FEW,,0.00,WeatherDisplay:10.37,2013-03-05 01:07:00,
2013-03-04 20:12:00,35.2,18.9,29.76,NW,315,6.6,6.6,51,0.00,FEW,,0.00,WeatherDisplay:10.37,2013-03-05 01:12:00,
2013-03-04 20:17:00,35.1,19.2,29.77,West,270,4.6,4.6,52,0.00,FEW,,0.00,WeatherDisplay:10.37,2013-03-05 01:17:00,
2013-03-04 20:22:00,35.1,19.2,29.77,NW,315,6.9,6.9,52,0.00,FEW,,0.00,WeatherDisplay:10.37,2013-03-05 01:22:00,
2013-03-04 20:27:00,34.9,19.0,29.77,West,270,5.8,5.8,52,0.00,FEW,,0.00,WeatherDisplay:10.37,2013-03-05 01:27:00,
2013-03-04 20:32:00,35.1,19.2,29.77,NW,315,9.2,9.2,52,0.00,FEW,,0.00,WeatherDisplay:10.37,2013-03-05 01:32:00,
2013-03-04 20:37:00,35.1,19.2,29.77,NNW,338,5.8,5.8,52,0.00,FEW,,0.00,WeatherDisplay:10.37,2013-03-05 01:37:00,
2013-03-04 20:42:00,34.7,19.3,29.77,WNW,292,3.5,3.5,53,0.00,FEW,,0.00,WeatherDisplay:10.37,2013-03-05 01:42:00,
2013-03-04 20:47:00,34.5,19.1,29.77,WNW,292,5.8,5.8,53,0.00,FEW,,0.00,WeatherDisplay:10.37,2013-03-05 01:47:00,
2013-03-04 20:52:00,34.7,19.3,29.77,WNW,292,8.1,8.1,53,0.00,FEW,,0.00,WeatherDisplay:10.37,2013-03-05 01:52:00,
2013-03-04 20:57:00,34.7,19.3,29.77,NW,315,6.9,6.9,53,0.00,FEW,,0.00,WeatherDisplay:10.37,2013-03-05 01:57:00,
2013-03-04 21:02:00,34.5,19.1,29.77,NW,315,6.9,6.9,53,0.00,FEW,,0.00,WeatherDisplay:10.37,2013-03-05 02:02:00,
2013-03-04 21:07:00,34.3,19.4,29.77,NW,315,5.8,5.8,54,0.00,FEW,,0.00,WeatherDisplay:10.37,2013-03-05 02:07:00,
2013-03-04 21:12:00,34.5,19.6,29.77,NW,315,9.2,9.2,54,0.00,FEW,,0.00,WeatherDisplay:10.37,2013-03-05 02:12:00,
2013-03-04 21:17:00,34.3,19.4,29.78,NW,315,5.2,5.2,54,0.00,FEW,,0.00,WeatherDisplay:10.37,2013-03-05 02:17:00,
2013-03-04 21:22:00,34.2,19.7,29.78,NW,315,8.9,8.9,55,0.00,FEW,,0.00,WeatherDisplay:10.37,2013-03-05 02:22:00,
2013-03-04 21:27:00,34.3,19.8,29.78,NW,315,6.9,6.9,55,0.00,FEW,,0.00,WeatherDisplay:10.37,2013-03-05 02:27:00,
2013-03-04 21:32:00,34.2,19.7,29.78,NNW,338,8.1,8.1,55,0.00,FEW,,0.00,WeatherDisplay:10.37,2013-03-05 02:32:00,
2013-03-04 21:37:00,34.3,19.8,29.78,NW,315,8.1,8.1,55,0.00,FEW,,0.00,WeatherDisplay:10.37,2013-03-05 02:37:00,
2013-03-04 21:43:00,34.3,19.8,29.78,NW,315,4.6,4.6,55,0.00,FEW,,0.00,WeatherDisplay:10.37,2013-03-05 02:43:00,
2013-03-04 21:48:00,34.3,19.8,29.78,NNW,338,5.8,5.8,55,0.00,FEW,,0.00,WeatherDisplay:10.37,2013-03-05 02:48:00,
2013-03-04 21:53:00,34.3,20.3,29.78,NW,315,5.8,5.8,56,0.00,FEW,,0.00,WeatherDisplay:10.37,2013-03-05 02:53:00,
2013-03-04 21:58:00,34.5,20.0,29.79,NW,315,8.1,8.1,55,0.00,FEW,,0.00,WeatherDisplay:10.37,2013-03-05 02:58:00,
2013-03-04 22:03:00,34.5,20.0,29.79,NW,315,8.1,8.1,55,0.00,FEW,,0.00,WeatherDisplay:10.37,2013-03-05 03:03:00,
2013-03-04 22:08:00,34.5,20.0,29.79,NNW,338,8.1,8.1,55,0.00,FEW,,0.00,WeatherDisplay:10.37,2013-03-05 03:08:00,
2013-03-04 22:13:00,34.7,20.2,29.79,NNW,338,11.5,11.5,55,0.00,FEW,,0.00,WeatherDisplay:10.37,2013-03-05 03:13:00,
2013-03-04 22:18:00,34.5,20.0,29.79,NW,315,6.9,6.9,55,0.00,FEW,,0.00,WeatherDisplay:10.37,2013-03-05 03:18:00,
2013-03-04 22:23:00,34.5,20.0,29.79,NW,315,6.9,6.9,55,0.00,FEW,,0.00,WeatherDisplay:10.37,2013-03-05 03:23:00,
2013-03-04 22:28:00,34.5,20.0,29.79,NW,315,4.6,4.6,55,0.00,FEW,,0.00,WeatherDisplay:10.37,2013-03-05 03:28:00,
2013-03-04 22:33:00,34.5,20.0,29.79,West,270,6.9,6.9,55,0.00,FEW,,0.00,WeatherDisplay:10.37,2013-03-05 03:33:00,
2013-03-04 22:38:00,34.5,20.0,29.80,NW,315,8.1,8.1,55,0.00,FEW,,0.00,WeatherDisplay:10.37,2013-03-05 03:38:00,
2013-03-04 22:43:00,34.3,19.8,29.80,NW,315,11.5,11.5,55,0.00,FEW,,0.00,WeatherDisplay:10.37,2013-03-05 03:43:00,
2013-03-04 22:48:00,34.3,19.8,29.80,NNW,338,9.2,9.2,55,0.00,FEW,,0.00,WeatherDisplay:10.37,2013-03-05 03:48:00,
2013-03-04 22:53:00,34.3,20.3,29.80,NW,315,6.9,6.9,56,0.00,FEW,,0.00,WeatherDisplay:10.37,2013-03-05 03:53:00,
2013-03-04 22:58:00,34.3,20.3,29.81,NW,315,6.9,6.9,56,0.00,FEW,,0.00,WeatherDisplay:10.37,2013-03-05 03:58:00,
2013-03-04 23:03:00,34.0,19.9,29.81,NW,315,6.9,6.9,56,0.00,FEW,,0.00,WeatherDisplay:10.37,2013-03-05 04:03:00,
2013-03-04 23:08:00,34.0,19.9,29.81,NNE,22,8.1,8.1,56,0.00,FEW,,0.00,WeatherDisplay:10.37,2013-03-05 04:08:00,
2013-03-04 23:13:00,33.8,19.7,29.81,NW,315,8.1,8.1,56,0.00,FEW,,0.00,WeatherDisplay:10.37,2013-03-05 04:13:00,
2013-03-04 23:18:00,34.0,19.9,29.81,NNW,338,5.8,5.8,56,0.00,FEW,,0.00,WeatherDisplay:10.37,2013-03-05 04:18:00,
2013-03-04 23:23:00,33.8,20.2,29.81,NW,315,6.9,6.9,57,0.00,FEW,,0.00,WeatherDisplay:10.37,2013-03-05 04:23:00,
2013-03-04 23:28:00,33.6,20.0,29.81,NNW,338,11.5,11.5,57,0.00,FEW,,0.00,WeatherDisplay:10.37,2013-03-05 04:28:00,
2013-03-04 23:33:00,33.6,20.0,29.81,NW,315,8.1,8.1,57,0.00,FEW,,0.00,WeatherDisplay:10.37,2013-03-05 04:33:00,
2013-03-04 23:38:00,33.6,20.0,29.81,NW,315,5.8,5.8,57,0.00,FEW,,0.00,WeatherDisplay:10.37,2013-03-05 04:38:00,
2013-03-04 23:43:00,33.4,19.8,29.81,NNE,22,6.9,6.9,57,0.00,FEW,,0.00,WeatherDisplay:10.37,2013-03-05 04:43:00,
2013-03-04 23:49:00,33.3,20.1,29.81,NW,315,5.8,5.8,58,0.00,FEW,,0.00,WeatherDisplay:10.37,2013-03-05 04:49:00,
2013-03-04 23:54:00,33.1,19.9,29.81,NW,315,5.8,5.8,58,0.00,FEW,,0.00,WeatherDisplay:10.37,2013-03-05 04:54:00,
2013-03-04 23:59:00,33.1,19.9,29.81,NW,315,5.8,5.8,58,0.00,FEW,,0.00,WeatherDisplay:10.37,2013-03-05 04:59:00,